Portada
METAR-TAF:

METAR-TAF

Aeroports :

Hawkins Field

Jackson, Mississipí, Estats Units d'Amèrica

latitud: 32-20-05N, longitud: 090-13-21W, altitud: 104 m

Observació

L'informe es va fer fa 1 hora i 2 minuts, a les 06:53 UTC
Vent 8 kt del Est
Temperatura 0°C
Humitat 55%
Pressió 1029 hPa
Visibilitat: 16.1 km
Cel clar

METAR: KHKS 220653Z AUTO 09008KT 10SM CLR 00/M08 A3038 RMK AO2 SLP285 T00001078

Hora: 01:55 (07:55 UTC)

Pronòstic

L'informe es va fer fa 2 hores i 14 minuts, a les 05:41 UTC
Pronòstic vàlid del 22 a les 06 UTC al 23 a les 06 UTC
Vent 4 kt del Est/Sud-Est
Visibilitat: 10 km
Cel ennuvolat a una alçada de 25000 ft

TAF: KHKS 220541Z 2206/2306 11004KT P6SM BKN250

Observacions i pronòstics meteorològics de més de 4000 aeroports (METAR i TAF).

Les estacions disponibles són els punts grocs i vermells al mapa.

Posi el ratolí al punt desitjat per veure el nom de l'estació.

Feu clic per veure les observacions i els pronòstics meteorològics.

Per canviar el mapa: feu clic els botons verds amb una creu de color negre per apropar; al botó verd amb un guió per allunyar la imatge; o en les fletxes verdes per a mapes adjacents.


METAR-TAF: